Time;durP1;ratioP1;P1;durP2;ratioP2;P2;SDS_P1;SDS_P2;PMS_P1;PMS_P2;Temp;Humidity;BMP_temperature;BMP_pressure;BME280_temperature;BME280_humidity;BME280_pressure;Samples;Min_cycle;Max_cycle;Signal;HPM_P1;HPM_P2
2022/09/23 00:00:44;;;;;;;7.47;5.68;;;18.50;1.00;;;;;;5079095;28;20031;-63
2022/09/23 00:03:10;;;;;;;6.93;5.82;;;18.50;1.00;;;;;;5087341;28;20060;-63
2022/09/23 00:05:36;;;;;;;6.55;5.50;;;18.50;1.00;;;;;;5092408;28;20548;-64
2022/09/23 00:08:06;;;;;;;10.70;5.65;;;18.50;1.00;;;;;;5086003;28;20052;-64
2022/09/23 00:10:37;;;;;;;9.40;5.30;;;18.40;1.00;;;;;;5084355;28;20028;-63
2022/09/23 00:13:03;;;;;;;9.73;5.60;;;18.40;1.00;;;;;;5078637;28;20028;-63
2022/09/23 00:15:30;;;;;;;5.43;4.82;;;18.20;1.00;;;;;;5086062;28;20113;-63
2022/09/23 00:17:56;;;;;;;6.95;4.53;;;18.20;1.00;;;;;;5091116;28;20420;-63
2022/09/23 00:20:21;;;;;;;5.25;4.32;;;18.20;1.00;;;;;;5078417;28;20603;-63
2022/09/23 00:22:47;;;;;;;5.05;4.50;;;18.10;1.00;;;;;;5085983;28;20115;-63
2022/09/23 00:25:13;;;;;;;4.97;4.20;;;18.30;1.00;;;;;;5083740;28;20072;-63
2022/09/23 00:31:09;;;;;;;6.55;4.20;;;18.20;1.00;;;;;;5081976;28;20397;-63
2022/09/23 00:33:35;;;;;;;6.30;4.10;;;18.30;1.00;;;;;;5089854;28;20100;-63
2022/09/23 00:36:03;;;;;;;5.60;4.20;;;18.20;1.00;;;;;;5088998;28;20026;-63
2022/09/23 00:38:28;;;;;;;5.88;4.07;;;18.30;1.00;;;;;;5080829;28;20437;-62
2022/09/23 00:40:54;;;;;;;4.00;3.55;;;18.30;1.00;;;;;;5091045;28;20020;-62
2022/09/23 00:43:35;;;;;;;6.43;4.63;;;18.40;1.00;;;;;;5091838;28;20059;-62
2022/09/23 00:46:01;;;;;;;8.48;4.35;;;18.40;1.00;;;;;;5090732;28;20473;-63
2022/09/23 00:48:27;;;;;;;7.68;4.13;;;18.30;1.00;;;;;;5091946;28;20097;-62
2022/09/23 00:50:54;;;;;;;4.88;3.70;;;18.40;1.00;;;;;;5089811;28;20095;-63
2022/09/23 00:53:22;;;;;;;6.38;4.03;;;18.40;1.00;;;;;;5091567;28;20032;-62
2022/09/23 00:55:59;;;;;;;3.95;3.60;;;18.30;1.00;;;;;;5091577;28;20063;-62
2022/09/23 00:58:30;;;;;;;4.63;4.22;;;18.40;1.00;;;;;;5090691;28;20020;-62
2022/09/23 01:00:59;;;;;;;5.32;3.75;;;18.30;1.00;;;;;;5090653;28;20100;-62
2022/09/23 01:03:25;;;;;;;4.22;3.53;;;18.20;1.00;;;;;;5091479;28;20043;-62
2022/09/23 01:05:51;;;;;;;4.50;3.47;;;18.30;1.00;;;;;;5090949;28;20093;-62
2022/09/23 01:08:19;;;;;;;5.65;3.80;;;18.30;1.00;;;;;;5087142;28;20025;-62
2022/09/23 01:11:15;;;;;;;5.47;3.38;;;18.20;1.00;;;;;;5090335;28;20146;-62
2022/09/23 01:13:56;;;;;;;3.45;3.15;;;18.30;1.00;;;;;;5085577;28;20025;-62
2022/09/23 01:16:35;;;;;;;4.38;3.22;;;18.20;1.00;;;;;;5078943;28;20107;-62
2022/09/23 01:19:23;;;;;;;5.05;3.30;;;18.20;1.00;;;;;;5077609;28;20024;-62
2022/09/23 01:22:16;;;;;;;6.10;3.08;;;18.20;1.00;;;;;;5088562;28;20048;-63
2022/09/23 01:25:03;;;;;;;4.47;3.35;;;18.20;1.00;;;;;;5094424;28;20116;-62
2022/09/23 01:27:53;;;;;;;4.30;3.88;;;18.20;1.00;;;;;;5085909;28;20058;-62
2022/09/23 01:30:46;;;;;;;6.15;3.53;;;18.30;1.00;;;;;;5090787;28;20024;-63
2022/09/23 01:33:14;;;;;;;4.03;2.90;;;18.30;1.00;;;;;;5093957;28;20197;-62
2022/09/23 01:35:49;;;;;;;4.80;3.22;;;18.20;1.00;;;;;;5093620;28;20035;-63
2022/09/23 01:38:29;;;;;;;4.55;3.22;;;18.30;1.00;;;;;;5093880;28;20111;-63
2022/09/23 01:41:08;;;;;;;3.42;3.13;;;18.30;1.00;;;;;;5088423;28;20028;-63
2022/09/23 01:43:58;;;;;;;3.40;3.10;;;18.20;1.00;;;;;;5090607;28;20021;-63
2022/09/23 01:46:32;;;;;;;4.07;3.15;;;18.20;1.00;;;;;;5089229;28;20127;-62
2022/09/23 01:49:16;;;;;;;4.75;2.67;;;18.20;1.00;;;;;;5094481;28;20031;-63
2022/09/23 01:51:51;;;;;;;4.25;2.83;;;18.10;1.00;;;;;;5093546;28;20118;-63
2022/09/23 01:54:21;;;;;;;;;;;18.10;1.00;;;;;;5080732;28;20086;-62
2022/09/23 01:56:58;;;;;;;3.83;2.75;;;18.10;1.00;;;;;;5088101;28;19954;-63
2022/09/23 01:59:47;;;;;;;3.45;2.60;;;18.10;1.00;;;;;;5096061;28;20393;-62
2022/09/23 02:02:25;;;;;;;4.05;3.03;;;18.20;1.00;;;;;;5087164;28;20035;-62
2022/09/23 02:04:59;;;;;;;7.28;2.78;;;18.10;1.00;;;;;;5093273;28;20098;-62
2022/09/23 02:07:34;;;;;;;2.35;2.15;;;18.20;1.00;;;;;;5084086;28;20056;-63
2022/09/23 02:10:10;;;;;;;6.18;2.88;;;18.20;1.00;;;;;;5094782;28;20470;-62
2022/09/23 02:12:39;;;;;;;3.83;2.65;;;18.10;1.00;;;;;;5093805;28;20023;-62
2022/09/23 02:15:10;;;;;;;3.83;2.47;;;18.20;1.00;;;;;;5093432;28;20098;-63
2022/09/23 02:17:46;;;;;;;3.03;2.28;;;18.20;1.00;;;;;;5083828;28;20028;-63
2022/09/23 02:20:14;;;;;;;3.50;2.50;;;18.20;1.00;;;;;;5094786;28;20048;-62
2022/09/23 02:22:44;;;;;;;3.05;2.70;;;18.10;1.00;;;;;;5093366;28;20474;-63
2022/09/23 02:25:11;;;;;;;5.30;2.40;;;17.90;1.00;;;;;;5094981;28;20054;-62
2022/09/23 02:28:04;;;;;;;3.97;2.67;;;18.10;1.00;;;;;;5093409;28;20016;-62
2022/09/23 02:30:37;;;;;;;4.00;2.35;;;18.10;1.00;;;;;;5093971;28;20112;-62
2022/09/23 02:33:28;;;;;;;3.05;2.70;;;18.10;1.00;;;;;;5091858;28;20020;-62
2022/09/23 02:36:03;;;;;;;4.00;2.83;;;18.00;1.00;;;;;;5091821;28;20032;-62
2022/09/23 02:38:39;;;;;;;5.95;3.10;;;18.00;1.00;;;;;;5093562;28;20032;-62
2022/09/23 02:41:16;;;;;;;4.82;2.80;;;18.00;1.00;;;;;;5094513;28;20086;-62
2022/09/23 02:43:47;;;;;;;2.97;2.78;;;18.00;1.00;;;;;;5093670;28;20111;-63
2022/09/23 02:46:13;;;;;;;2.60;2.22;;;17.90;1.00;;;;;;5094002;28;20020;-62
2022/09/23 02:48:52;;;;;;;4.60;2.70;;;18.00;1.00;;;;;;5084913;28;20074;-62
2022/09/23 02:51:18;;;;;;;3.70;3.00;;;17.90;1.00;;;;;;5093260;28;20450;-62
2022/09/23 02:53:44;;;;;;;3.53;2.63;;;17.80;1.00;;;;;;5084626;28;20032;-62
2022/09/23 02:56:21;;;;;;;5.68;3.55;;;17.90;1.00;;;;;;5091502;28;20054;-62
2022/09/23 02:58:52;;;;;;;5.10;2.65;;;18.00;1.00;;;;;;5093770;28;20028;-62
2022/09/23 03:01:31;;;;;;;3.40;2.47;;;18.00;1.00;;;;;;5093920;28;20016;-62
2022/09/23 03:04:05;;;;;;;3.72;3.42;;;18.00;1.00;;;;;;5083039;28;20040;-63
2022/09/23 03:06:36;;;;;;;3.72;3.15;;;18.00;1.00;;;;;;5107634;28;20044;-62
2022/09/23 03:09:11;;;;;;;7.38;3.55;;;18.00;1.00;;;;;;5084356;28;20095;-62
2022/09/23 03:11:39;;;;;;;5.13;3.13;;;18.00;1.00;;;;;;5091596;28;20032;-63
2022/09/23 03:14:21;;;;;;;4.28;2.80;;;18.00;1.00;;;;;;5083875;28;20020;-63
2022/09/23 03:17:00;;;;;;;3.45;2.63;;;18.00;1.00;;;;;;5092603;28;20036;-63
2022/09/23 03:19:31;;;;;;;7.07;3.53;;;17.80;1.00;;;;;;5093445;28;20031;-63
2022/09/23 03:22:18;;;;;;;4.13;2.70;;;17.80;1.00;;;;;;5092100;28;20058;-63
2022/09/23 03:24:46;;;;;;;5.40;3.08;;;17.90;1.00;;;;;;5079190;28;20085;-63
2022/09/23 03:27:18;;;;;;;6.57;2.67;;;17.90;1.00;;;;;;5087689;28;20124;-63
2022/09/23 03:29:52;;;;;;;6.35;3.20;;;17.90;1.00;;;;;;5084732;28;20039;-62
2022/09/23 03:32:22;;;;;;;4.55;2.80;;;17.80;1.00;;;;;;5091346;28;20456;-63
2022/09/23 03:34:52;;;;;;;5.00;3.10;;;17.90;1.00;;;;;;5092193;28;20457;-62
2022/09/23 03:37:34;;;;;;;5.18;3.28;;;17.80;1.00;;;;;;5091573;28;20118;-63
2022/09/23 03:40:08;;;;;;;4.32;2.95;;;17.90;1.00;;;;;;5093191;28;20035;-62
2022/09/23 03:42:36;;;;;;;3.78;2.97;;;17.80;1.00;;;;;;5085818;28;20112;-62
2022/09/23 03:45:07;;;;;;;4.85;3.30;;;17.80;1.00;;;;;;5093236;28;20035;-62
2022/09/23 03:47:32;;;;;;;5.07;3.35;;;17.80;1.00;;;;;;5090929;28;20032;-62
2022/09/23 03:49:58;;;;;;;3.42;2.65;;;17.70;1.00;;;;;;5092889;28;20382;-63
2022/09/23 03:52:24;;;;;;;3.58;3.10;;;17.70;1.00;;;;;;5091643;28;20020;-63
2022/09/23 03:54:51;;;;;;;4.97;2.70;;;17.70;1.00;;;;;;5092833;28;20032;-63
2022/09/23 03:57:17;;;;;;;5.28;3.25;;;17.70;1.00;;;;;;5087068;28;20466;-62
2022/09/23 03:59:42;;;;;;;3.97;3.08;;;17.70;1.00;;;;;;5084023;28;20031;-63
2022/09/23 04:02:10;;;;;;;5.53;2.88;;;17.70;1.00;;;;;;5087994;28;20105;-63
2022/09/23 04:04:37;;;;;;;4.30;2.92;;;17.70;1.00;;;;;;5079064;28;20143;-63
2022/09/23 04:07:03;;;;;;;4.38;3.10;;;17.70;1.00;;;;;;5077036;28;20024;-62
2022/09/23 04:09:29;;;;;;;3.95;2.80;;;17.60;1.00;;;;;;5085304;28;20025;-62
2022/09/23 04:11:54;;;;;;;5.47;3.10;;;17.60;1.00;;;;;;5087991;28;20099;-62
2022/09/23 04:14:21;;;;;;;3.85;3.30;;;17.60;1.00;;;;;;5092223;28;20047;-63
2022/09/23 04:16:47;;;;;;;3.30;2.85;;;17.60;1.00;;;;;;5091286;28;20024;-62
2022/09/23 04:19:13;;;;;;;5.13;3.42;;;17.50;1.00;;;;;;5091888;28;20024;-63
2022/09/23 04:21:40;;;;;;;7.60;3.45;;;17.50;1.00;;;;;;5090785;28;20068;-63
2022/09/23 04:24:07;;;;;;;3.92;3.13;;;17.50;1.00;;;;;;5089583;28;20115;-63
2022/09/23 04:26:33;;;;;;;3.53;3.03;;;17.50;1.00;;;;;;5090894;28;20433;-62
2022/09/23 04:28:59;;;;;;;5.80;3.53;;;17.60;1.00;;;;;;5081727;28;20024;-62
2022/09/23 04:31:25;;;;;;;4.57;2.97;;;17.40;1.00;;;;;;5092317;28;20091;-63
2022/09/23 04:33:53;;;;;;;7.10;3.50;;;17.40;1.00;;;;;;5091116;28;20115;-63
2022/09/23 04:36:19;;;;;;;4.18;3.00;;;17.40;1.00;;;;;;5092179;28;20040;-63
2022/09/23 04:38:46;;;;;;;3.78;2.88;;;17.40;1.00;;;;;;5089547;28;20108;-63
2022/09/23 04:41:12;;;;;;;5.60;3.40;;;17.50;1.00;;;;;;5090036;28;20071;-63
2022/09/23 04:43:38;;;;;;;5.95;3.63;;;17.50;1.00;;;;;;5087311;28;20508;-63
2022/09/23 04:46:05;;;;;;;4.55;3.45;;;17.50;1.00;;;;;;5091865;28;20103;-63
2022/09/23 04:48:32;;;;;;;9.75;3.75;;;17.50;1.00;;;;;;5091024;28;20028;-63
2022/09/23 04:51:03;;;;;;;5.68;3.83;;;17.40;1.00;;;;;;5091460;28;20067;-63
2022/09/23 04:53:29;;;;;;;4.78;3.75;;;17.40;1.00;;;;;;5089483;28;20376;-63
2022/09/23 04:56:00;;;;;;;6.40;3.78;;;17.40;1.00;;;;;;5091366;28;20035;-63
2022/09/23 04:58:27;;;;;;;8.18;3.90;;;17.30;1.00;;;;;;5090491;28;20050;-63
2022/09/23 05:00:53;;;;;;;5.43;3.67;;;17.30;1.00;;;;;;5091543;28;20419;-63
2022/09/23 05:03:19;;;;;;;4.30;3.38;;;17.30;1.00;;;;;;5090651;28;20020;-63
2022/09/23 05:05:45;;;;;;;6.72;3.45;;;17.30;1.00;;;;;;5091528;28;20115;-62
2022/09/23 05:08:10;;;;;;;6.55;3.85;;;17.30;1.00;;;;;;5085881;28;20025;-62
2022/09/23 05:10:36;;;;;;;4.15;3.53;;;17.30;1.00;;;;;;5088859;28;20107;-62
2022/09/23 05:13:02;;;;;;;4.35;3.47;;;17.20;1.00;;;;;;5085127;28;20025;-62
2022/09/23 05:15:28;;;;;;;4.50;3.10;;;17.30;1.00;;;;;;5087068;28;20024;-63
2022/09/23 05:17:56;;;;;;;7.82;3.42;;;17.30;1.00;;;;;;5090823;28;20031;-63
2022/09/23 05:20:22;;;;;;;6.82;4.22;;;17.40;1.00;;;;;;5091666;28;20126;-62
2022/09/23 05:22:48;;;;;;;3.95;3.15;;;17.40;1.00;;;;;;5087434;28;20152;-63
2022/09/23 05:25:13;;;;;;;4.07;3.67;;;17.40;1.00;;;;;;5091579;28;20059;-63
2022/09/23 05:27:39;;;;;;;4.82;4.00;;;17.30;1.00;;;;;;5090476;28;20028;-63
2022/09/23 05:30:05;;;;;;;4.45;3.17;;;17.30;1.00;;;;;;5081229;28;20028;-63
2022/09/23 05:32:31;;;;;;;3.42;3.20;;;17.20;1.00;;;;;;5090505;28;20071;-63
2022/09/23 05:34:57;;;;;;;6.05;3.72;;;17.20;1.00;;;;;;5089669;28;20024;-63
2022/09/23 05:37:24;;;;;;;5.10;4.07;;;17.30;1.00;;;;;;5085200;28;20112;-63
2022/09/23 05:39:49;;;;;;;4.32;3.42;;;17.30;1.00;;;;;;5089310;28;20055;-63
2022/09/23 05:42:17;;;;;;;8.38;3.90;;;17.30;1.00;;;;;;5091335;28;20066;-63
2022/09/23 05:44:42;;;;;;;5.60;4.15;;;17.20;1.00;;;;;;5090093;28;20076;-63
2022/09/23 05:47:08;;;;;;;4.80;3.92;;;17.30;1.00;;;;;;5090587;28;20146;-63
2022/09/23 05:49:35;;;;;;;4.18;3.78;;;17.20;1.00;;;;;;5087552;28;20028;-63
2022/09/23 05:52:01;;;;;;;7.55;4.05;;;17.30;1.00;;;;;;5106858;28;20143;-63
2022/09/23 05:54:27;;;;;;;4.13;3.67;;;17.30;1.00;;;;;;5090141;28;20426;-63
2022/09/23 05:56:52;;;;;;;5.78;4.13;;;17.30;1.00;;;;;;5091328;28;20019;-63
2022/09/23 05:59:18;;;;;;;4.50;4.10;;;17.40;1.00;;;;;;5089142;28;20029;-63
2022/09/23 06:01:43;;;;;;;7.03;4.28;;;17.30;1.00;;;;;;5090939;28;20012;-63
2022/09/23 06:04:11;;;;;;;6.85;3.90;;;17.30;1.00;;;;;;5088355;28;20111;-63
2022/09/23 06:06:40;;;;;;;3.85;3.55;;;17.40;1.00;;;;;;5093362;28;20024;-62
2022/09/23 06:09:08;;;;;;;6.32;4.15;;;17.40;1.00;;;;;;5093600;28;20028;-63
2022/09/23 06:11:35;;;;;;;7.15;3.92;;;17.40;1.00;;;;;;5094589;28;20143;-63
2022/09/23 06:14:01;;;;;;;7.63;4.10;;;17.50;1.00;;;;;;5085991;28;20024;-63
2022/09/23 06:16:28;;;;;;;6.10;4.57;;;17.40;1.00;;;;;;5091935;28;20028;-63
2022/09/23 06:18:54;;;;;;;5.60;4.28;;;17.40;1.00;;;;;;5090048;28;20024;-63
2022/09/23 06:21:20;;;;;;;6.03;4.18;;;17.50;1.00;;;;;;5109867;28;20157;-63
2022/09/23 06:23:45;;;;;;;7.65;3.85;;;17.60;1.00;;;;;;5089257;28;20389;-63
2022/09/23 06:26:13;;;;;;;6.22;4.07;;;17.70;1.00;;;;;;5094627;28;20035;-63
2022/09/23 06:28:41;;;;;;;8.48;4.32;;;17.70;1.00;;;;;;5091347;28;20031;-64
2022/09/23 06:31:10;;;;;;;5.10;4.70;;;17.70;1.00;;;;;;5094171;28;20366;-64
2022/09/23 06:33:36;;;;;;;9.05;4.07;;;17.80;1.00;;;;;;5084898;28;20039;-64
2022/09/23 06:36:06;;;;;;;6.97;4.10;;;17.80;1.00;;;;;;5074218;28;20024;-64
2022/09/23 06:38:35;;;;;;;5.43;3.88;;;17.80;1.00;;;;;;5090893;28;20108;-63
2022/09/23 06:41:02;;;;;;;6.40;4.20;;;17.80;1.00;;;;;;5094125;28;20032;-63
2022/09/23 06:43:29;;;;;;;5.57;4.35;;;17.70;1.00;;;;;;5093347;28;20032;-64
2022/09/23 06:45:56;;;;;;;7.95;4.53;;;17.80;1.00;;;;;;5092860;28;20134;-63
2022/09/23 06:48:23;;;;;;;6.22;4.38;;;17.90;1.00;;;;;;5081603;28;20104;-63
2022/09/23 06:50:49;;;;;;;12.68;4.35;;;18.00;1.00;;;;;;5093932;28;20055;-63
2022/09/23 06:53:16;;;;;;;7.07;4.13;;;18.00;1.00;;;;;;5093104;28;20109;-63
2022/09/23 06:55:42;;;;;;;8.23;4.15;;;18.10;1.00;;;;;;5109701;28;20417;-64
2022/09/23 06:58:08;;;;;;;7.60;3.97;;;18.20;1.00;;;;;;5092723;28;20086;-63
2022/09/23 07:00:36;;;;;;;5.70;4.05;;;18.20;1.00;;;;;;5091294;28;20016;-64
2022/09/23 07:03:06;;;;;;;6.65;4.43;;;18.20;1.00;;;;;;5093602;28;20079;-64
2022/09/23 07:05:32;;;;;;;6.15;4.35;;;18.20;1.00;;;;;;5082443;28;20048;-62
2022/09/23 07:07:58;;;;;;;4.97;4.20;;;18.30;1.00;;;;;;5089813;28;20370;-62
2022/09/23 07:10:26;;;;;;;7.93;5.18;;;18.40;1.00;;;;;;5091403;28;20024;-62
2022/09/23 07:12:52;;;;;;;9.15;4.03;;;18.40;1.00;;;;;;5072898;28;20020;-63
2022/09/23 07:15:18;;;;;;;7.40;5.05;;;18.50;1.00;;;;;;5086567;28;20115;-63
2022/09/23 07:17:43;;;;;;;7.97;4.95;;;18.40;1.00;;;;;;5091315;28;20042;-63
2022/09/23 07:20:10;;;;;;;5.40;4.35;;;18.40;1.00;;;;;;5087274;28;20477;-63
2022/09/23 07:22:36;;;;;;;6.18;4.57;;;18.50;1.00;;;;;;5093595;28;20035;-63
2022/09/23 07:25:03;;;;;;;8.52;4.30;;;18.50;1.00;;;;;;5092536;28;20115;-63
2022/09/23 07:27:28;;;;;;;5.22;4.25;;;18.50;1.00;;;;;;5093137;28;20099;-63
2022/09/23 07:29:54;;;;;;;7.55;4.80;;;18.60;1.00;;;;;;5091957;28;20169;-63
2022/09/23 07:32:21;;;;;;;8.30;5.20;;;18.70;1.00;;;;;;5093420;28;20509;-63
2022/09/23 07:34:47;;;;;;;8.43;4.65;;;18.70;1.00;;;;;;5085855;28;20047;-63
2022/09/23 07:37:15;;;;;;;8.07;4.47;;;18.70;1.00;;;;;;5091133;28;20054;-63
2022/09/23 07:39:41;;;;;;;9.05;4.95;;;18.80;1.00;;;;;;5091669;28;20028;-63
2022/09/23 07:42:07;;;;;;;5.50;4.30;;;18.80;1.00;;;;;;5091638;28;20146;-64
2022/09/23 07:44:33;;;;;;;8.52;5.90;;;18.90;1.00;;;;;;5078767;28;20040;-63
2022/09/23 07:46:59;;;;;;;6.53;5.10;;;18.80;1.00;;;;;;5092293;28;20111;-64
2022/09/23 07:49:25;;;;;;;12.40;5.28;;;18.80;1.00;;;;;;5090893;28;20039;-63
2022/09/23 07:51:51;;;;;;;6.03;3.95;;;18.70;1.00;;;;;;5093066;28;20115;-63
2022/09/23 07:54:18;;;;;;;6.22;4.60;;;18.80;1.00;;;;;;5088611;28;20082;-63
2022/09/23 07:56:45;;;;;;;7.75;5.10;;;18.80;1.00;;;;;;5091964;28;20034;-63
2022/09/23 07:59:17;;;;;;;5.85;4.32;;;18.80;1.00;;;;;;5091571;28;20040;-64
2022/09/23 08:01:48;;;;;;;8.60;5.28;;;18.80;1.00;;;;;;5092658;28;20030;-63
2022/09/23 08:04:18;;;;;;;7.90;4.97;;;18.60;1.00;;;;;;5082701;28;20101;-63
2022/09/23 08:06:49;;;;;;;7.25;5.60;;;18.70;1.00;;;;;;5104590;28;20059;-63
2022/09/23 08:09:17;;;;;;;8.73;4.20;;;18.70;1.00;;;;;;5084356;28;20024;-63
2022/09/23 08:11:43;;;;;;;6.10;4.93;;;18.60;1.00;;;;;;5087861;28;20028;-64
2022/09/23 08:14:14;;;;;;;5.78;4.00;;;18.60;1.00;;;;;;5090432;28;20025;-63
2022/09/23 08:16:40;;;;;;;5.55;3.95;;;18.70;1.00;;;;;;5078314;28;20029;-64
2022/09/23 08:19:07;;;;;;;5.60;4.35;;;18.70;1.00;;;;;;5086419;28;20107;-64
2022/09/23 08:21:33;;;;;;;9.30;8.30;;;18.70;1.00;;;;;;5082065;28;20353;-63
2022/09/23 08:23:58;;;;;;;10.80;4.97;;;18.80;1.00;;;;;;5076577;28;20385;-63
2022/09/23 08:26:24;;;;;;;6.22;5.63;;;18.80;1.00;;;;;;5089042;28;20103;-64
2022/09/23 08:28:54;;;;;;;8.63;4.90;;;18.80;1.00;;;;;;5087690;28;20126;-64
2022/09/23 08:31:23;;;;;;;8.60;4.95;;;18.90;1.00;;;;;;5091957;28;20470;-64
2022/09/23 08:33:58;;;;;;;8.43;4.65;;;18.90;1.00;;;;;;5081694;28;20032;-63
2022/09/23 08:36:24;;;;;;;5.95;4.68;;;18.90;1.00;;;;;;5089972;28;20115;-64
2022/09/23 08:38:50;;;;;;;7.80;4.30;;;19.10;1.00;;;;;;5090872;28;20040;-64
2022/09/23 08:41:16;;;;;;;6.70;4.63;;;19.20;1.00;;;;;;5107767;28;20025;-64
2022/09/23 08:43:48;;;;;;;6.45;4.60;;;19.10;1.00;;;;;;5089875;28;20445;-64
2022/09/23 08:46:20;;;;;;;8.68;4.97;;;19.20;1.00;;;;;;5080648;28;20028;-64
2022/09/23 08:48:47;;;;;;;8.85;5.63;;;19.30;1.00;;;;;;5090003;28;20028;-64
2022/09/23 08:51:18;;;;;;;10.65;5.28;;;19.30;1.00;;;;;;5079082;28;20471;-63
2022/09/23 08:53:45;;;;;;;8.30;3.92;;;19.30;1.00;;;;;;5106226;28;20024;-64
2022/09/23 08:56:15;;;;;;;5.95;4.28;;;19.30;1.00;;;;;;5091711;28;20035;-64
2022/09/23 08:58:46;;;;;;;8.35;4.60;;;19.30;1.00;;;;;;5090688;28;20020;-64
2022/09/23 09:01:39;;;;;;;6.35;3.80;;;19.30;1.00;;;;;;5080697;28;20028;-64
2022/09/23 09:04:23;;;;;;;5.68;3.88;;;19.30;1.00;;;;;;5084431;28;20028;-64
2022/09/23 09:07:14;;;;;;;5.65;3.38;;;19.30;1.00;;;;;;5094173;28;20032;-64
2022/09/23 09:09:52;;;;;;;4.35;3.00;;;19.30;1.00;;;;;;5081159;28;20134;-64
2022/09/23 09:12:27;;;;;;;7.15;4.05;;;19.30;1.00;;;;;;5092039;28;20174;-64
2022/09/23 09:14:56;;;;;;;6.88;4.18;;;19.30;1.00;;;;;;5090867;28;20546;-64
2022/09/23 09:17:33;;;;;;;7.93;3.30;;;19.30;1.00;;;;;;5091717;28;20024;-64
2022/09/23 09:20:16;;;;;;;5.28;2.80;;;19.30;1.00;;;;;;5086523;28;20016;-64
2022/09/23 09:22:51;;;;;;;3.42;2.90;;;19.40;1.00;;;;;;5091455;28;20085;-64
2022/09/23 09:26:03;;;;;;;6.40;4.13;;;19.40;1.00;;;;;;5090630;28;20079;-65
2022/09/23 09:28:53;;;;;;;4.57;2.70;;;19.40;1.00;;;;;;5091564;28;20032;-64
2022/09/23 09:31:55;;;;;;;5.53;2.78;;;19.50;1.00;;;;;;5086536;28;20052;-64
2022/09/23 09:35:00;;;;;;;7.07;4.03;;;19.50;1.00;;;;;;5087790;28;20107;-64
2022/09/23 09:37:54;;;;;;;9.05;5.50;;;19.50;1.00;;;;;;5084360;28;20147;-64
2022/09/23 09:40:20;;;;;;;6.15;4.13;;;19.60;1.00;;;;;;5068736;28;20043;-64
2022/09/23 09:42:48;;;;;;;7.93;4.47;;;19.60;1.00;;;;;;5084851;28;20036;-63
2022/09/23 09:45:19;;;;;;;5.40;3.70;;;19.60;1.00;;;;;;5095010;28;20061;-64
2022/09/23 09:48:09;;;;;;;6.68;4.30;;;19.70;1.00;;;;;;5084896;28;20111;-64
2022/09/23 09:50:47;;;;;;;7.05;4.78;;;19.70;1.00;;;;;;5080211;28;20132;-64
2022/09/23 09:53:14;;;;;;;6.97;4.55;;;19.80;1.00;;;;;;5080716;28;20055;-64
2022/09/23 09:55:40;;;;;;;7.45;4.68;;;19.80;1.00;;;;;;5102744;28;20154;-64
2022/09/23 09:58:12;;;;;;;6.93;4.93;;;19.90;1.00;;;;;;5084782;28;20024;-64
2022/09/23 10:00:42;;;;;;;6.68;4.57;;;19.90;1.00;;;;;;5088445;28;20349;-64
2022/09/23 10:03:13;;;;;;;4.45;4.05;;;19.90;1.00;;;;;;5081265;28;20025;-64
2022/09/23 10:05:51;;;;;;;8.20;4.93;;;20.00;1.00;;;;;;5085749;28;20032;-64
2022/09/23 10:08:34;;;;;;;6.10;4.35;;;19.90;1.00;;;;;;5084656;28;20019;-64
2022/09/23 10:11:04;;;;;;;11.15;4.90;;;20.00;1.00;;;;;;5089602;28;20393;-64
2022/09/23 10:13:30;;;;;;;6.50;4.03;;;20.10;1.00;;;;;;5083086;28;20039;-64
2022/09/23 10:15:58;;;;;;;7.60;4.90;;;20.20;1.00;;;;;;5086816;28;20028;-64
2022/09/23 10:18:37;;;;;;;5.30;4.25;;;20.30;1.00;;;;;;5082898;28;20108;-64
2022/09/23 10:21:14;;;;;;;6.13;5.35;;;20.30;1.00;;;;;;5083608;28;20166;-64
2022/09/23 10:23:44;;;;;;;15.52;8.73;;;20.40;1.00;;;;;;5082791;28;20020;-64
2022/09/23 10:26:12;;;;;;;6.35;5.60;;;20.50;1.00;;;;;;5089177;28;20036;-64
2022/09/23 10:32:18;;;;;;;7.95;4.93;;;20.60;1.00;;;;;;5086228;28;20056;-64
2022/09/23 10:34:48;;;;;;;9.50;5.18;;;20.60;1.00;;;;;;5091651;28;20028;-64
2022/09/23 10:37:17;;;;;;;6.22;4.97;;;20.80;1.00;;;;;;5086678;28;20055;-64
2022/09/23 10:48:35;;;;;;;7.32;5.35;;;21.20;1.00;;;;;;5090101;28;20450;-64
2022/09/23 10:51:05;;;;;;;5.75;5.10;;;21.30;1.00;;;;;;5085765;28;20033;-64
2022/09/23 10:53:48;;;;;;;6.50;5.90;;;21.30;1.00;;;;;;5104293;28;20482;-64
2022/09/23 10:56:29;;;;;;;6.28;5.38;;;21.30;1.00;;;;;;5090670;28;20071;-64
2022/09/23 10:59:05;;;;;;;6.75;5.95;;;21.30;1.00;;;;;;5091823;28;20388;-65
2022/09/23 11:01:31;;;;;;;10.27;6.82;;;21.30;1.00;;;;;;5087936;28;20028;-64
2022/09/23 11:04:06;;;;;;;6.05;5.28;;;21.40;1.00;;;;;;5090283;28;20539;-64
2022/09/23 11:07:06;;;;;;;8.90;5.20;;;21.40;1.00;;;;;;5087127;28;20062;-64
2022/09/23 11:09:47;;;;;;;5.72;5.13;;;21.50;1.00;;;;;;5080548;28;20020;-64
2022/09/23 11:12:43;;;;;;;9.57;5.22;;;21.40;1.00;;;;;;5092751;28;20036;-64
2022/09/23 11:15:39;;;;;;;5.18;4.68;;;21.50;1.00;;;;;;5093567;28;20135;-65
2022/09/23 11:18:23;;;;;;;6.22;4.53;;;21.70;1.00;;;;;;5093032;28;20570;-63
2022/09/23 11:21:19;;;;;;;6.18;5.55;;;21.80;1.00;;;;;;5093478;28;20063;-64
2022/09/23 11:24:11;;;;;;;7.65;5.40;;;21.70;1.00;;;;;;5085213;28;20064;-64
2022/09/23 11:26:36;;;;;;;5.93;5.05;;;21.90;1.00;;;;;;5091604;28;20043;-63
2022/09/23 11:29:05;;;;;;;7.03;6.05;;;22.00;1.00;;;;;;5081672;28;20020;-63
2022/09/23 11:31:42;;;;;;;6.88;5.40;;;22.20;1.00;;;;;;5087660;28;20032;-64
2022/09/23 11:34:30;;;;;;;8.25;6.60;;;22.40;1.00;;;;;;5092403;28;20039;-64
2022/09/23 11:37:42;;;;;;;8.85;6.38;;;22.50;1.00;;;;;;5077203;28;20541;-64
2022/09/23 11:40:34;;;;;;;7.13;5.80;;;22.60;1.00;;;;;;5091519;28;20028;-64
2022/09/23 11:43:22;;;;;;;6.85;6.03;;;22.70;1.00;;;;;;5088905;28;20080;-64
2022/09/23 11:46:04;;;;;;;6.70;5.97;;;22.70;1.00;;;;;;5092944;28;20032;-63
2022/09/23 11:48:42;;;;;;;8.18;6.70;;;22.90;1.00;;;;;;5092268;28;20418;-63
2022/09/23 11:51:35;;;;;;;6.10;5.50;;;23.10;1.00;;;;;;5091612;28;20068;-63
2022/09/23 11:54:18;;;;;;;7.55;6.50;;;22.90;1.00;;;;;;5091813;28;20107;-63
2022/09/23 11:56:46;;;;;;;6.60;5.63;;;23.00;1.00;;;;;;5092181;28;20081;-63
2022/09/23 11:59:27;;;;;;;7.03;6.38;;;23.30;1.00;;;;;;5084275;28;20020;-64
2022/09/23 12:02:13;;;;;;;8.63;5.43;;;23.50;1.00;;;;;;5091139;28;20517;-64
2022/09/23 12:04:43;;;;;;;10.95;8.00;;;23.40;1.00;;;;;;5080668;28;20036;-64
2022/09/23 12:07:25;;;;;;;6.53;5.72;;;23.50;1.00;;;;;;5091428;28;20381;-64
2022/09/23 12:10:01;;;;;;;6.15;5.57;;;23.50;1.00;;;;;;5092730;28;20032;-64
2022/09/23 12:12:35;;;;;;;8.95;5.47;;;23.70;1.00;;;;;;5091314;28;20024;-64
2022/09/23 12:15:31;;;;;;;5.65;5.13;;;23.80;1.00;;;;;;5092698;28;20135;-64
2022/09/23 12:18:19;;;;;;;6.88;5.60;;;23.80;1.00;;;;;;5084082;28;20085;-64
2022/09/23 12:20:58;;;;;;;6.05;5.43;;;24.00;1.00;;;;;;5107838;28;20165;-64
2022/09/23 12:23:32;;;;;;;7.35;5.68;;;24.00;1.00;;;;;;5086237;28;20557;-64
2022/09/23 12:26:02;;;;;;;5.93;5.35;;;24.10;1.00;;;;;;5085601;28;20520;-64
2022/09/23 12:28:40;;;;;;;8.85;6.45;;;24.30;1.00;;;;;;5083107;28;20077;-64
2022/09/23 12:31:12;;;;;;;7.47;5.70;;;24.50;1.00;;;;;;5088875;28;20028;-64
2022/09/23 12:33:38;;;;;;;8.65;6.45;;;25.30;1.00;;;;;;5085392;28;20070;-64
2022/09/23 12:36:11;;;;;;;8.32;5.97;;;27.60;1.00;;;;;;5091655;28;20477;-64
2022/09/23 12:38:36;;;;;;;10.05;5.93;;;29.00;1.00;;;;;;5084672;28;20035;-64
2022/09/23 12:41:37;;;;;;;6.55;6.00;;;30.80;1.00;;;;;;5084933;28;20077;-64
2022/09/23 12:44:12;;;;;;;7.68;5.38;;;30.40;1.00;;;;;;5087805;28;20020;-64
2022/09/23 12:46:42;;;;;;;5.57;5.05;;;31.00;1.00;;;;;;5092057;28;20036;-64
2022/09/23 12:49:34;;;;;;;7.57;5.25;;;31.10;1.00;;;;;;5090434;28;20070;-64
2022/09/23 12:52:14;;;;;;;6.68;5.30;;;28.70;1.00;;;;;;5091488;28;20020;-63
2022/09/23 12:54:42;;;;;;;7.13;6.53;;;27.30;1.00;;;;;;5090216;28;20105;-63
2022/09/23 12:57:30;;;;;;;11.02;6.72;;;26.50;1.00;;;;;;5092068;28;20023;-64
2022/09/23 13:00:10;;;;;;;10.05;5.95;;;25.90;1.00;;;;;;5085136;28;20089;-63
2022/09/23 13:06:37;;;;;;;9.60;6.70;;;25.30;1.00;;;;;;5088305;28;21642;-63
2022/09/23 13:08:42;;;;;;;7.15;5.72;;;28.10;1.00;;;;;;5081271;28;20074;-64
2022/09/23 13:11:27;;;;;;;6.90;5.75;;;29.10;1.00;;;;;;5091792;28;20024;-64
2022/09/23 13:13:56;;;;;;;6.90;5.75;;;29.70;1.00;;;;;;5090792;28;20039;-64
2022/09/23 13:16:39;;;;;;;6.60;6.00;;;30.70;1.00;;;;;;5093476;28;20034;-63
2022/09/23 13:19:37;;;;;;;8.77;6.63;;;30.40;1.00;;;;;;5095254;28;20333;-64
2022/09/23 13:22:08;;;;;;;11.07;5.97;;;31.70;1.00;;;;;;5094489;28;20093;-64
2022/09/23 13:24:52;;;;;;;7.85;6.63;;;33.00;1.00;;;;;;5090733;28;20060;-63
2022/09/23 13:27:21;;;;;;;6.38;5.50;;;32.30;1.00;;;;;;5089472;28;20100;-64
2022/09/23 13:30:13;;;;;;;7.93;6.60;;;30.10;1.00;;;;;;5095664;28;20036;-64
2022/09/23 13:32:44;;;;;;;8.85;6.20;;;32.40;1.00;;;;;;5094770;28;20509;-65
2022/09/23 13:35:26;;;;;;;6.15;5.45;;;32.70;1.00;;;;;;5095898;28;20039;-62
2022/09/23 13:37:52;;;;;;;10.25;6.43;;;33.50;1.00;;;;;;5093592;28;20503;-65
2022/09/23 13:40:27;;;;;;;7.35;6.25;;;30.50;1.00;;;;;;5095901;28;20024;-64
2022/09/23 13:42:57;;;;;;;5.70;4.85;;;28.80;1.00;;;;;;5094777;28;20028;-65
2022/09/23 13:45:24;;;;;;;6.57;5.13;;;28.10;1.00;;;;;;5095273;28;20043;-65